CXA8144 ZBAA-RJAA
Flight info
| Callsign | CXA8144 |
|---|---|
| Flight time | N/A |
| Altitude | 37100 |
| Route | MUGLO2G MUGLO W34 VAPGU W100 ORAVA W201 UNSEK A326 DONVO G597 AGAVO/N0455F371 Y644 EGOBA Y697 LANAT Y51 SAMON Y517 ESKAS Y303 ENTAK Y30 SWAMP |
| Aircraft | A321/M-SDE3FGHIRWY/LB1 |
Departure
| Time | 2026-05-04 06:36 |
|---|---|
| Airport | Beijing Capital International Airport (ZBAA) |
Arrival
| Time | N/A |
|---|---|
| Airport | Narita International Airport (RJAA) |
| Time | Latitude | Longitude | Altitude | Speed | Heading |
|---|---|---|---|---|---|
| 2026-05-04 05:59 | 40.07707 | 116.60155 | 126 ft | 0 kts | 26° |
| 2026-05-04 06:15 | 40.07706 | 116.60155 | 134 ft | 1 kts | 26° |
| 2026-05-04 06:15 | 40.07693 | 116.60146 | 119 ft | 3 kts | 24° |
| 2026-05-04 06:15 | 40.07674 | 116.60136 | 122 ft | 3 kts | 19° |
| 2026-05-04 06:16 | 40.07655 | 116.60128 | 122 ft | 3 kts | 11° |
| 2026-05-04 06:16 | 40.07635 | 116.60125 | 122 ft | 3 kts | 354° |
| 2026-05-04 06:16 | 40.07618 | 116.60131 | 119 ft | 3 kts | 313° |
| 2026-05-04 06:16 | 40.07613 | 116.60138 | 122 ft | 0 kts | 293° |
| 2026-05-04 06:25 | 40.07926 | 116.59878 | 122 ft | 4 kts | 353° |
| 2026-05-04 06:25 | 40.07964 | 116.59872 | 122 ft | 6 kts | 353° |
| 2026-05-04 06:26 | 40.08015 | 116.59863 | 121 ft | 11 kts | 353° |
| 2026-05-04 06:26 | 40.08094 | 116.59851 | 122 ft | 11 kts | 354° |
| 2026-05-04 06:26 | 40.08162 | 116.59850 | 123 ft | 10 kts | 17° |
| 2026-05-04 06:26 | 40.08192 | 116.59921 | 122 ft | 12 kts | 82° |
| 2026-05-04 06:27 | 40.08228 | 116.60307 | 123 ft | 9 kts | 83° |
| 2026-05-04 06:28 | 40.08240 | 116.60426 | 120 ft | 16 kts | 83° |
| 2026-05-04 06:28 | 40.08252 | 116.60564 | 121 ft | 15 kts | 83° |
| 2026-05-04 06:28 | 40.08263 | 116.60689 | 124 ft | 13 kts | 83° |
| 2026-05-04 06:28 | 40.08274 | 116.60804 | 124 ft | 12 kts | 83° |
| 2026-05-04 06:29 | 40.08284 | 116.60909 | 123 ft | 11 kts | 83° |
| 2026-05-04 06:29 | 40.08292 | 116.61001 | 124 ft | 10 kts | 83° |
| 2026-05-04 06:29 | 40.08300 | 116.61082 | 124 ft | 8 kts | 83° |
| 2026-05-04 06:29 | 40.08342 | 116.61146 | 123 ft | 12 kts | 12° |
| 2026-05-04 06:30 | 40.08423 | 116.61135 | 119 ft | 12 kts | 353° |
| 2026-05-04 06:30 | 40.08505 | 116.61122 | 121 ft | 11 kts | 353° |
| 2026-05-04 06:30 | 40.08579 | 116.61111 | 123 ft | 10 kts | 353° |
| 2026-05-04 06:30 | 40.08644 | 116.61101 | 122 ft | 9 kts | 353° |
| 2026-05-04 06:31 | 40.08699 | 116.61092 | 122 ft | 7 kts | 353° |
| 2026-05-04 06:31 | 40.08748 | 116.61084 | 121 ft | 10 kts | 353° |
| 2026-05-04 06:31 | 40.08860 | 116.61066 | 122 ft | 23 kts | 353° |
| 2026-05-04 06:31 | 40.09009 | 116.61043 | 122 ft | 18 kts | 353° |
| 2026-05-04 06:32 | 40.09132 | 116.61024 | 122 ft | 17 kts | 353° |
| 2026-05-04 06:33 | 40.09142 | 116.61260 | 121 ft | 0 kts | 174° |
| 2026-05-04 06:35 | 40.09130 | 116.61261 | 122 ft | 11 kts | 174° |
| 2026-05-04 06:36 | 40.02577 | 116.64068 | 1931 ft | 211 kts | 141° |
| 2026-05-04 06:37 | 40.01483 | 116.65406 | 2206 ft | 219 kts | 140° |
| 2026-05-04 06:37 | 40.00362 | 116.66761 | 2601 ft | 219 kts | 142° |
| 2026-05-04 06:37 | 39.99222 | 116.68102 | 2924 ft | 225 kts | 141° |
| 2026-05-04 06:37 | 39.98285 | 116.69890 | 3042 ft | 260 kts | 110° |
| 2026-05-04 06:38 | 39.98188 | 116.72265 | 3619 ft | 275 kts | 83° |
| 2026-05-04 06:38 | 39.98503 | 116.74752 | 4312 ft | 281 kts | 83° |
| 2026-05-04 06:40 | 40.00521 | 116.93046 | 6896 ft | 293 kts | 79° |
| 2026-05-04 06:40 | 40.00809 | 116.95650 | 6908 ft | 294 kts | 79° |
| 2026-05-04 06:40 | 40.01097 | 116.98310 | 7476 ft | 295 kts | 79° |
| 2026-05-04 06:40 | 40.01385 | 117.00963 | 8284 ft | 296 kts | 79° |
| 2026-05-04 06:41 | 40.01620 | 117.03646 | 9026 ft | 301 kts | 88° |
| 2026-05-04 06:41 | 40.01128 | 117.06313 | 9744 ft | 308 kts | 117° |
| 2026-05-04 06:41 | 39.99746 | 117.08442 | 10395 ft | 312 kts | 145° |
| 2026-05-04 06:41 | 39.97754 | 117.09534 | 10983 ft | 317 kts | 170° |
| 2026-05-04 06:42 | 39.95504 | 117.10017 | 11130 ft | 338 kts | 173° |
| 2026-05-04 06:42 | 39.93128 | 117.10431 | 11252 ft | 359 kts | 174° |
| 2026-05-04 06:42 | 39.90574 | 117.10816 | 11375 ft | 379 kts | 175° |
| 2026-05-04 06:44 | 39.71074 | 117.13824 | 14927 ft | 416 kts | 174° |
| 2026-05-04 06:44 | 39.68187 | 117.14290 | 15384 ft | 420 kts | 174° |
| 2026-05-04 06:44 | 39.65324 | 117.14745 | 15933 ft | 421 kts | 174° |
| 2026-05-04 06:45 | 39.62408 | 117.15203 | 16474 ft | 423 kts | 174° |
| 2026-05-04 06:45 | 39.59477 | 117.15662 | 16933 ft | 427 kts | 174° |
| 2026-05-04 06:45 | 39.56516 | 117.16128 | 17400 ft | 431 kts | 173° |
| 2026-05-04 06:45 | 39.53529 | 117.16599 | 17868 ft | 434 kts | 173° |
| 2026-05-04 06:46 | 39.50531 | 117.17094 | 18326 ft | 437 kts | 171° |
| 2026-05-04 06:46 | 39.47579 | 117.18021 | 18571 ft | 436 kts | 161° |
| 2026-05-04 06:46 | 39.44782 | 117.19543 | 18623 ft | 437 kts | 151° |
| 2026-05-04 06:46 | 39.42209 | 117.21623 | 18626 ft | 435 kts | 140° |
| 2026-05-04 06:48 | 39.34373 | 117.46506 | 21147 ft | 442 kts | 104° |
| 2026-05-04 06:48 | 39.33502 | 117.50314 | 21573 ft | 443 kts | 104° |
| 2026-05-04 06:49 | 39.32626 | 117.54139 | 21980 ft | 445 kts | 104° |
| 2026-05-04 06:50 | 39.25490 | 117.77589 | 23976 ft | 461 kts | 103° |
| 2026-05-04 06:51 | 39.24891 | 117.81580 | 24341 ft | 459 kts | 95° |
| 2026-05-04 06:51 | 39.24527 | 117.85681 | 24659 ft | 461 kts | 94° |
| 2026-05-04 06:51 | 39.24169 | 117.89792 | 24969 ft | 463 kts | 95° |
| 2026-05-04 06:51 | 39.23610 | 117.93900 | 25254 ft | 467 kts | 100° |
| 2026-05-04 06:52 | 39.22805 | 117.97966 | 25553 ft | 470 kts | 104° |
| 2026-05-04 06:52 | 39.21824 | 118.02006 | 25854 ft | 473 kts | 106° |
| 2026-05-04 06:52 | 39.20751 | 118.06033 | 26149 ft | 475 kts | 107° |
| 2026-05-04 06:52 | 39.19677 | 118.10014 | 26466 ft | 477 kts | 107° |
| 2026-05-04 06:53 | 39.18618 | 118.14076 | 26762 ft | 479 kts | 106° |
| 2026-05-04 06:53 | 39.17605 | 118.18160 | 27094 ft | 479 kts | 105° |
| 2026-05-04 06:53 | 39.16630 | 118.22264 | 27492 ft | 478 kts | 104° |
| 2026-05-04 06:53 | 39.15677 | 118.26365 | 27886 ft | 477 kts | 104° |
| 2026-05-04 06:54 | 39.14733 | 118.30456 | 28263 ft | 477 kts | 104° |
| 2026-05-04 06:54 | 39.13781 | 118.34548 | 28638 ft | 476 kts | 104° |
| 2026-05-04 06:54 | 39.12819 | 118.38635 | 29017 ft | 476 kts | 104° |
| 2026-05-04 06:54 | 39.11865 | 118.42650 | 29392 ft | 476 kts | 104° |
| 2026-05-04 06:55 | 39.10890 | 118.46721 | 29766 ft | 475 kts | 105° |
| 2026-05-04 06:55 | 39.09912 | 118.50780 | 30112 ft | 475 kts | 105° |
| 2026-05-04 06:55 | 39.08932 | 118.54838 | 30422 ft | 475 kts | 105° |
| 2026-05-04 06:55 | 39.07953 | 118.58894 | 30724 ft | 475 kts | 104° |
| 2026-05-04 06:56 | 39.06973 | 118.62950 | 31031 ft | 474 kts | 104° |
| 2026-05-04 06:57 | 39.00110 | 118.91236 | 33185 ft | 474 kts | 105° |
| 2026-05-04 06:58 | 38.99122 | 118.95273 | 33491 ft | 474 kts | 104° |
| 2026-05-04 06:58 | 38.98132 | 118.99312 | 33796 ft | 474 kts | 105° |
| 2026-05-04 06:58 | 38.97163 | 119.03265 | 34065 ft | 474 kts | 105° |
| 2026-05-04 06:58 | 38.96173 | 119.07304 | 34299 ft | 474 kts | 105° |
| 2026-05-04 06:59 | 38.95182 | 119.11340 | 34518 ft | 474 kts | 105° |
| 2026-05-04 06:59 | 38.94184 | 119.15383 | 34743 ft | 475 kts | 105° |
| 2026-05-04 06:59 | 38.93186 | 119.19420 | 34953 ft | 475 kts | 105° |
| 2026-05-04 06:59 | 38.92183 | 119.23467 | 35165 ft | 476 kts | 105° |
| 2026-05-04 07:01 | 38.85125 | 119.51896 | 36495 ft | 480 kts | 106° |
| 2026-05-04 07:01 | 38.84103 | 119.55975 | 36663 ft | 481 kts | 107° |
| 2026-05-04 07:02 | 38.83075 | 119.60064 | 36813 ft | 482 kts | 107° |
| 2026-05-04 07:02 | 38.82044 | 119.64154 | 36989 ft | 482 kts | 107° |
| 2026-05-04 07:02 | 38.79989 | 119.72299 | 37093 ft | 484 kts | 107° |
| 2026-05-04 07:03 | 38.77912 | 119.80501 | 37094 ft | 484 kts | 107° |
| 2026-05-04 07:03 | 38.76317 | 119.88856 | 37096 ft | 484 kts | 100° |
| 2026-05-04 07:04 | 38.74929 | 119.97290 | 37099 ft | 484 kts | 101° |
| 2026-05-04 07:04 | 38.73518 | 120.05662 | 37119 ft | 484 kts | 101° |
| 2026-05-04 07:05 | 38.71358 | 120.13798 | 37117 ft | 485 kts | 118° |
| 2026-05-04 07:05 | 38.67354 | 120.20682 | 37088 ft | 483 kts | 138° |
| 2026-05-04 07:06 | 38.62564 | 120.26672 | 37091 ft | 484 kts | 125° |
| 2026-05-04 07:06 | 38.60858 | 120.30379 | 37095 ft | 484 kts | 114° |
| 2026-05-04 07:07 | 38.58906 | 120.38515 | 37089 ft | 483 kts | 100° |
| 2026-05-04 07:09 | 38.53341 | 120.72229 | 37101 ft | 487 kts | 100° |
| 2026-05-04 07:09 | 38.51977 | 120.80709 | 37130 ft | 487 kts | 100° |
| 2026-05-04 07:10 | 38.50588 | 120.89150 | 37129 ft | 487 kts | 101° |
| 2026-05-04 07:12 | 38.45013 | 121.22871 | 37121 ft | 486 kts | 100° |
| 2026-05-04 07:12 | 38.43649 | 121.31323 | 37110 ft | 487 kts | 101° |
| 2026-05-04 07:13 | 38.42290 | 121.39789 | 37107 ft | 487 kts | 101° |
| 2026-05-04 07:13 | 38.40923 | 121.48198 | 37111 ft | 488 kts | 101° |
| 2026-05-04 07:14 | 38.37394 | 121.69366 | 37107 ft | 489 kts | 101° |
| 2026-05-04 07:15 | 38.35963 | 121.77845 | 37107 ft | 489 kts | 101° |
| 2026-05-04 07:15 | 38.34537 | 121.86271 | 37108 ft | 490 kts | 102° |
| 2026-05-04 07:16 | 38.33093 | 121.94765 | 37109 ft | 491 kts | 102° |
| 2026-05-04 07:16 | 38.31645 | 122.03274 | 37117 ft | 492 kts | 102° |
| 2026-05-04 07:17 | 38.30189 | 122.11785 | 37119 ft | 492 kts | 102° |
| 2026-05-04 07:17 | 38.28731 | 122.20246 | 37122 ft | 493 kts | 102° |
| 2026-05-04 07:18 | 38.27289 | 122.28785 | 37122 ft | 493 kts | 101° |
| 2026-05-04 07:18 | 38.26049 | 122.37368 | 37136 ft | 493 kts | 101° |
| 2026-05-04 07:19 | 38.23748 | 122.45548 | 37133 ft | 492 kts | 121° |
| 2026-05-04 07:19 | 38.19606 | 122.52305 | 37116 ft | 487 kts | 138° |
| 2026-05-04 07:20 | 38.14822 | 122.58406 | 37119 ft | 488 kts | 137° |
| 2026-05-04 07:20 | 38.10053 | 122.64556 | 37120 ft | 489 kts | 137° |
| 2026-05-04 07:22 | 37.91039 | 122.89246 | 37147 ft | 491 kts | 137° |
| 2026-05-04 07:23 | 37.86255 | 122.95410 | 37113 ft | 491 kts | 138° |
| 2026-05-04 07:23 | 37.81501 | 123.01538 | 37125 ft | 491 kts | 138° |
| 2026-05-04 07:24 | 37.76713 | 123.07695 | 37139 ft | 491 kts | 138° |
| 2026-05-04 07:24 | 37.71911 | 123.13848 | 37145 ft | 491 kts | 138° |
| 2026-05-04 07:26 | 37.53271 | 123.39034 | 37161 ft | 496 kts | 130° |
| 2026-05-04 07:27 | 37.49139 | 123.45984 | 37147 ft | 496 kts | 130° |
| 2026-05-04 07:27 | 37.44998 | 123.52919 | 37155 ft | 496 kts | 130° |
| 2026-05-04 07:28 | 37.40877 | 123.59804 | 37163 ft | 496 kts | 130° |
| 2026-05-04 07:28 | 37.36729 | 123.66728 | 37166 ft | 496 kts | 130° |
| 2026-05-04 07:29 | 37.32576 | 123.73646 | 37162 ft | 496 kts | 130° |
| 2026-05-04 07:29 | 37.28415 | 123.80559 | 37169 ft | 496 kts | 130° |
| 2026-05-04 07:30 | 37.24249 | 123.87464 | 37167 ft | 496 kts | 130° |
| 2026-05-04 07:30 | 37.20216 | 123.94432 | 37159 ft | 499 kts | 122° |
| 2026-05-04 07:31 | 37.17617 | 124.02522 | 37158 ft | 504 kts | 103° |
| 2026-05-04 07:33 | 37.17865 | 124.33244 | 37148 ft | 507 kts | 88° |
| 2026-05-04 07:33 | 37.17959 | 124.37673 | 37149 ft | 508 kts | 88° |
| 2026-05-04 07:33 | 37.18135 | 124.46533 | 37184 ft | 509 kts | 88° |
| 2026-05-04 07:34 | 37.18330 | 124.55400 | 37162 ft | 509 kts | 88° |
| 2026-05-04 07:34 | 37.18541 | 124.64280 | 37161 ft | 510 kts | 88° |
| 2026-05-04 07:35 | 37.18734 | 124.73110 | 37160 ft | 510 kts | 88° |
| 2026-05-04 07:35 | 37.18913 | 124.82005 | 37150 ft | 511 kts | 88° |
| 2026-05-04 07:36 | 37.19090 | 124.90915 | 37152 ft | 511 kts | 88° |
| 2026-05-04 07:38 | 37.19740 | 125.26602 | 37150 ft | 513 kts | 89° |
| 2026-05-04 07:38 | 37.19886 | 125.35558 | 37144 ft | 514 kts | 89° |
| 2026-05-04 07:39 | 37.20024 | 125.44532 | 37142 ft | 515 kts | 89° |
| 2026-05-04 07:39 | 37.20155 | 125.53454 | 37134 ft | 515 kts | 89° |
| 2026-05-04 07:40 | 37.20285 | 125.62447 | 37159 ft | 516 kts | 89° |
| 2026-05-04 07:40 | 37.20403 | 125.71456 | 37155 ft | 517 kts | 89° |
| 2026-05-04 07:41 | 37.20508 | 125.80471 | 37131 ft | 517 kts | 89° |
| 2026-05-04 07:41 | 37.20607 | 125.89438 | 37133 ft | 518 kts | 89° |
| 2026-05-04 07:42 | 37.20710 | 125.98475 | 37138 ft | 518 kts | 89° |
| 2026-05-04 07:42 | 37.20807 | 126.07521 | 37140 ft | 519 kts | 89° |
| 2026-05-04 07:43 | 37.20894 | 126.16571 | 37147 ft | 519 kts | 89° |
| 2026-05-04 07:43 | 37.20979 | 126.25539 | 37138 ft | 519 kts | 90° |
| 2026-05-04 07:44 | 37.21053 | 126.34540 | 37132 ft | 520 kts | 90° |
| 2026-05-04 07:44 | 37.21113 | 126.43591 | 37128 ft | 520 kts | 90° |
| 2026-05-04 07:45 | 37.21168 | 126.52676 | 37106 ft | 521 kts | 90° |
| 2026-05-04 07:45 | 37.21223 | 126.61767 | 37107 ft | 522 kts | 90° |
| 2026-05-04 07:46 | 37.21267 | 126.70822 | 37146 ft | 522 kts | 90° |
| 2026-05-04 07:46 | 37.21298 | 126.79231 | 37112 ft | 523 kts | 90° |
| 2026-05-04 07:47 | 37.21335 | 126.88354 | 37107 ft | 524 kts | 89° |
| 2026-05-04 07:47 | 37.21689 | 126.92896 | 37103 ft | 523 kts | 78° |
| 2026-05-04 07:49 | 37.35143 | 127.18662 | 37094 ft | 509 kts | 43° |
| 2026-05-04 07:49 | 37.39854 | 127.25325 | 37123 ft | 510 kts | 43° |
| 2026-05-04 07:50 | 37.44525 | 127.31963 | 37113 ft | 510 kts | 44° |
| 2026-05-04 07:50 | 37.48405 | 127.39526 | 37091 ft | 521 kts | 64° |
| 2026-05-04 07:51 | 37.50414 | 127.48306 | 37098 ft | 525 kts | 77° |
| 2026-05-04 07:51 | 37.51857 | 127.57330 | 37068 ft | 526 kts | 77° |
| 2026-05-04 07:52 | 37.53301 | 127.66363 | 37050 ft | 526 kts | 77° |
| 2026-05-04 07:52 | 37.54726 | 127.75343 | 37038 ft | 527 kts | 77° |
| 2026-05-04 07:54 | 37.60408 | 128.11644 | 37027 ft | 530 kts | 78° |
| 2026-05-04 07:55 | 37.61820 | 128.20779 | 37041 ft | 531 kts | 78° |
| 2026-05-04 07:55 | 37.63225 | 128.29929 | 37033 ft | 532 kts | 78° |
| 2026-05-04 07:56 | 37.64624 | 128.39087 | 37033 ft | 532 kts | 78° |
| 2026-05-04 07:56 | 37.66014 | 128.48195 | 37034 ft | 532 kts | 78° |
| 2026-05-04 07:57 | 37.67402 | 128.57361 | 37049 ft | 532 kts | 78° |
| 2026-05-04 07:57 | 37.68677 | 128.66561 | 37036 ft | 533 kts | 85° |
| 2026-05-04 07:58 | 37.68734 | 128.71228 | 37026 ft | 531 kts | 96° |
| 2026-05-04 07:58 | 37.68238 | 128.75774 | 37026 ft | 529 kts | 105° |
| 2026-05-04 07:58 | 37.65731 | 128.84382 | 37017 ft | 518 kts | 124° |
| 2026-05-04 07:59 | 37.62054 | 128.92171 | 37008 ft | 517 kts | 127° |
| 2026-05-04 07:59 | 37.58329 | 128.99939 | 37023 ft | 519 kts | 127° |
| 2026-05-04 08:00 | 37.54576 | 129.07729 | 37033 ft | 520 kts | 127° |
| 2026-05-04 08:02 | 37.39543 | 129.38764 | 37044 ft | 522 kts | 128° |
| 2026-05-04 08:02 | 37.35765 | 129.46555 | 37052 ft | 522 kts | 128° |
| 2026-05-04 08:03 | 37.31972 | 129.54338 | 37063 ft | 522 kts | 128° |
| 2026-05-04 08:03 | 37.28162 | 129.62115 | 37053 ft | 523 kts | 129° |
| 2026-05-04 08:04 | 37.24378 | 129.69844 | 37072 ft | 523 kts | 129° |
| 2026-05-04 08:04 | 37.20553 | 129.77621 | 37076 ft | 524 kts | 129° |
| 2026-05-04 08:05 | 37.16722 | 129.85394 | 37061 ft | 524 kts | 129° |
| 2026-05-04 08:05 | 37.12896 | 129.93174 | 37068 ft | 524 kts | 129° |
| 2026-05-04 08:06 | 37.09063 | 130.00946 | 37074 ft | 524 kts | 129° |
| 2026-05-04 08:06 | 37.05243 | 130.08653 | 37069 ft | 524 kts | 129° |
| 2026-05-04 08:08 | 36.89832 | 130.39562 | 37085 ft | 524 kts | 130° |
| 2026-05-04 08:11 | 36.75623 | 130.67798 | 37095 ft | 525 kts | 131° |